Time;durP1;ratioP1;P1;durP2;ratioP2;P2;SDS_P1;SDS_P2;PMS_P1;PMS_P2;Temp;Humidity;BMP_temperature;BMP_pressure;BME280_temperature;BME280_humidity;BME280_pressure;Samples;Min_cycle;Max_cycle;Signal;HPM_P1;HPM_P2
2023/12/14 00:00:14;;;;;;;2.73;0.93;;;5.90;32.70;;;;;;5031812;28;20180;-69
2023/12/14 00:02:40;;;;;;;3.63;1.50;;;5.80;33.60;;;;;;5031628;28;20230;-69
2023/12/14 00:05:06;;;;;;;1.97;1.07;;;5.80;33.70;;;;;;5031827;28;20806;-70
2023/12/14 00:07:31;;;;;;;2.67;1.40;;;5.80;34.30;;;;;;5031542;28;20207;-69
2023/12/14 00:09:57;;;;;;;6.00;1.33;;;5.90;35.00;;;;;;5014071;28;20175;-69
2023/12/14 00:12:23;;;;;;;1.60;0.77;;;5.90;35.40;;;;;;5014147;28;20183;-69
2023/12/14 00:14:48;;;;;;;2.50;1.57;;;5.90;33.40;;;;;;5032000;28;20419;-69
2023/12/14 00:17:14;;;;;;;9.40;1.13;;;5.90;33.00;;;;;;5031429;28;20202;-69
2023/12/14 00:19:39;;;;;;;1.70;0.70;;;5.90;32.90;;;;;;5031640;28;20201;-70
2023/12/14 00:22:05;;;;;;;2.53;1.30;;;6.00;31.80;;;;;;5031565;28;20237;-69
2023/12/14 00:24:31;;;;;;;2.30;1.40;;;6.10;31.60;;;;;;5031557;28;20259;-69
2023/12/14 00:26:56;;;;;;;2.00;1.10;;;6.10;33.10;;;;;;5031356;28;20207;-69
2023/12/14 00:29:22;;;;;;;2.07;1.30;;;6.20;32.60;;;;;;5031360;28;20179;-70
2023/12/14 00:31:47;;;;;;;2.20;1.40;;;6.20;32.00;;;;;;5031529;28;20184;-70
2023/12/14 00:34:13;;;;;;;4.93;1.30;;;6.20;32.50;;;;;;5031436;28;20172;-70
2023/12/14 00:36:38;;;;;;;2.53;1.13;;;6.20;31.90;;;;;;5031434;28;20209;-70
2023/12/14 00:39:04;;;;;;;2.10;1.13;;;6.20;32.20;;;;;;5031189;28;20237;-70
2023/12/14 00:41:29;;;;;;;2.40;1.30;;;6.10;32.20;;;;;;5031544;28;20184;-70
2023/12/14 00:43:55;;;;;;;4.80;1.37;;;6.00;33.60;;;;;;5031383;28;20414;-69
2023/12/14 00:46:20;;;;;;;2.37;1.20;;;5.90;34.30;;;;;;5031223;28;20242;-69
2023/12/14 00:48:46;;;;;;;2.60;1.13;;;5.90;34.40;;;;;;5031059;28;20194;-69
2023/12/14 00:51:12;;;;;;;2.40;1.03;;;5.90;35.20;;;;;;5031435;28;20183;-69
2023/12/14 00:53:37;;;;;;;3.60;1.20;;;6.00;36.00;;;;;;5031340;28;20184;-69
2023/12/14 00:56:03;;;;;;;2.73;1.10;;;6.00;36.30;;;;;;5031053;28;20215;-70
2023/12/14 00:58:28;;;;;;;1.90;1.20;;;5.90;37.70;;;;;;5031010;28;20647;-69
2023/12/14 01:00:54;;;;;;;3.20;1.10;;;6.00;38.20;;;;;;5031173;28;20179;-70
2023/12/14 01:03:20;;;;;;;1.80;0.60;;;6.00;36.90;;;;;;5031176;28;20609;-69
2023/12/14 01:05:46;;;;;;;2.03;1.10;;;6.10;35.70;;;;;;5031101;28;20549;-70
2023/12/14 01:08:11;;;;;;;3.27;2.00;;;6.00;36.20;;;;;;5030913;28;20467;-70
2023/12/14 01:10:37;;;;;;;2.07;1.23;;;6.00;35.80;;;;;;5031209;28;20176;-70
2023/12/14 01:13:02;;;;;;;5.57;1.40;;;6.00;36.10;;;;;;5031848;28;20624;-70
2023/12/14 01:15:28;;;;;;;5.10;1.40;;;6.00;37.00;;;;;;5034989;28;20176;-70
2023/12/14 01:17:54;;;;;;;2.60;1.20;;;6.10;39.00;;;;;;5034790;28;20199;-70
2023/12/14 01:20:19;;;;;;;2.50;1.10;;;6.10;37.70;;;;;;5017182;28;20430;-70
2023/12/14 01:22:45;;;;;;;1.90;1.00;;;6.10;38.40;;;;;;5035012;28;20268;-70
2023/12/14 01:25:11;;;;;;;3.00;1.30;;;6.10;37.30;;;;;;5034991;28;20548;-70
2023/12/14 01:27:36;;;;;;;3.30;1.47;;;6.20;37.50;;;;;;5034753;28;20214;-70
2023/12/14 01:30:02;;;;;;;1.87;1.00;;;6.20;37.30;;;;;;5035027;28;20218;-69
2023/12/14 01:32:28;;;;;;;2.27;1.13;;;6.30;36.60;;;;;;5034869;28;20180;-70
2023/12/14 01:34:53;;;;;;;3.00;1.50;;;6.30;36.40;;;;;;5034767;28;20426;-71
2023/12/14 01:37:19;;;;;;;2.00;1.10;;;6.40;36.60;;;;;;5034540;28;20200;-71
2023/12/14 01:39:45;;;;;;;3.27;1.70;;;6.40;36.90;;;;;;5034752;28;20558;-70
2023/12/14 01:42:10;;;;;;;2.10;1.23;;;6.40;36.40;;;;;;5034540;28;20194;-70
2023/12/14 01:44:36;;;;;;;3.03;1.40;;;6.40;36.40;;;;;;5034518;28;20184;-69
2023/12/14 01:47:01;;;;;;;2.00;1.00;;;6.50;35.60;;;;;;5034271;28;20302;-70
2023/12/14 01:49:27;;;;;;;2.10;1.13;;;6.50;35.80;;;;;;5034473;28;20181;-71
2023/12/14 01:51:52;;;;;;;2.17;1.13;;;6.50;35.20;;;;;;5034459;28;20177;-71
2023/12/14 01:54:18;;;;;;;2.30;1.23;;;6.50;34.20;;;;;;5034423;28;20181;-70
2023/12/14 01:56:43;;;;;;;3.60;1.47;;;6.60;34.30;;;;;;5034333;28;20294;-71
2023/12/14 01:59:09;;;;;;;2.60;1.33;;;6.60;34.30;;;;;;5034104;28;20176;-71
2023/12/14 02:01:46;;;;;;;2.13;1.13;;;6.60;34.30;;;;;;5034249;28;20254;-71
2023/12/14 02:04:13;;;;;;;2.20;1.47;;;6.60;34.30;;;;;;5034145;28;20184;-69
2023/12/14 02:06:39;;;;;;;4.03;1.10;;;6.70;34.60;;;;;;5034001;28;20559;-69
2023/12/14 02:09:05;;;;;;;2.10;1.20;;;6.70;34.80;;;;;;5033886;28;20523;-70
2023/12/14 02:11:31;;;;;;;1.90;1.40;;;6.80;33.60;;;;;;5034185;28;20447;-70
2023/12/14 02:13:56;;;;;;;2.47;1.70;;;6.80;34.30;;;;;;5034071;28;20438;-70
2023/12/14 02:16:22;;;;;;;2.33;1.10;;;6.80;33.50;;;;;;5033950;28;20192;-70
2023/12/14 02:18:48;;;;;;;3.43;1.67;;;6.80;32.70;;;;;;5033811;28;20422;-70
2023/12/14 02:21:14;;;;;;;2.57;1.50;;;6.80;33.80;;;;;;5016264;28;20516;-71
2023/12/14 02:23:46;;;;;;;3.60;1.77;;;6.90;33.50;;;;;;5015585;28;20189;-70
2023/12/14 02:26:15;;;;;;;5.63;1.70;;;6.90;33.90;;;;;;5033847;28;20246;-70
2023/12/14 02:28:41;;;;;;;2.20;1.33;;;6.90;32.70;;;;;;5033606;28;20412;-70
2023/12/14 02:31:07;;;;;;;2.47;1.50;;;6.80;32.20;;;;;;5033758;28;20407;-70
2023/12/14 02:33:32;;;;;;;2.37;1.40;;;6.70;33.40;;;;;;5033520;28;20408;-71
2023/12/14 02:35:59;;;;;;;7.13;2.00;;;6.70;34.40;;;;;;5033779;28;20271;-71
2023/12/14 02:38:24;;;;;;;2.90;1.60;;;6.70;32.30;;;;;;5033342;28;20177;-71
2023/12/14 02:40:52;;;;;;;1.80;1.37;;;6.70;33.70;;;;;;5033499;28;20411;-70
2023/12/14 02:43:18;;;;;;;3.93;1.40;;;6.70;34.40;;;;;;5033576;28;20178;-71
2023/12/14 02:45:44;;;;;;;2.70;1.73;;;6.70;34.40;;;;;;5033351;28;20734;-71
2023/12/14 02:48:10;;;;;;;3.87;1.40;;;6.60;33.50;;;;;;5033169;28;20520;-70
2023/12/14 02:50:35;;;;;;;2.20;1.37;;;6.50;34.20;;;;;;5033312;28;20184;-70
2023/12/14 02:53:01;;;;;;;2.97;1.60;;;6.40;34.50;;;;;;5033522;28;20176;-70
2023/12/14 02:55:26;;;;;;;2.40;1.50;;;6.40;33.70;;;;;;5033314;28;20175;-70
2023/12/14 02:57:52;;;;;;;2.77;2.20;;;6.30;34.90;;;;;;5032893;28;20297;-70
2023/12/14 03:00:17;;;;;;;3.90;1.70;;;6.20;35.20;;;;;;5015286;28;20231;-70
2023/12/14 03:02:43;;;;;;;2.90;1.60;;;6.10;35.80;;;;;;5015332;28;20192;-70
2023/12/14 03:05:08;;;;;;;2.43;1.63;;;6.00;38.60;;;;;;5033024;28;20271;-70
2023/12/14 03:07:34;;;;;;;2.13;1.30;;;5.90;38.80;;;;;;5032741;28;20239;-70
2023/12/14 03:09:59;;;;;;;2.10;1.47;;;5.90;40.50;;;;;;5032951;28;20179;-70
2023/12/14 03:12:25;;;;;;;2.90;1.90;;;5.90;40.20;;;;;;5033033;28;20214;-70
2023/12/14 03:14:50;;;;;;;2.83;1.50;;;5.90;41.10;;;;;;5032883;28;20211;-70
2023/12/14 03:17:17;;;;;;;1.70;0.93;;;6.00;42.90;;;;;;5032774;28;20225;-70
2023/12/14 03:19:42;;;;;;;2.00;1.23;;;6.00;42.10;;;;;;5014426;28;20199;-70
2023/12/14 03:22:09;;;;;;;2.80;1.17;;;6.00;41.50;;;;;;5032815;28;20423;-70
2023/12/14 03:24:35;;;;;;;1.70;1.30;;;6.00;42.10;;;;;;5032721;28;20183;-70
2023/12/14 03:27:02;;;;;;;2.20;1.40;;;6.10;43.10;;;;;;5032368;28;20830;-70
2023/12/14 03:29:28;;;;;;;2.07;1.27;;;6.10;42.30;;;;;;5032464;28;20444;-70
2023/12/14 03:31:56;;;;;;;2.20;1.00;;;6.10;41.20;;;;;;5032496;28;20500;-70
2023/12/14 03:34:22;;;;;;;7.80;1.27;;;6.20;41.20;;;;;;5032457;28;20414;-70
2023/12/14 03:36:48;;;;;;;2.00;1.17;;;6.30;41.50;;;;;;5031533;28;20473;-70
2023/12/14 03:39:14;;;;;;;2.77;1.40;;;6.30;40.90;;;;;;5032173;28;20416;-70
2023/12/14 03:41:39;;;;;;;7.67;1.87;;;6.30;40.80;;;;;;5032456;28;20496;-70
2023/12/14 03:44:05;;;;;;;2.30;1.20;;;6.40;39.30;;;;;;5032303;28;20419;-70
2023/12/14 03:46:30;;;;;;;1.90;0.97;;;6.40;39.30;;;;;;5032102;28;20678;-70
2023/12/14 03:48:56;;;;;;;1.93;1.23;;;6.40;39.30;;;;;;5032097;28;20264;-70
2023/12/14 03:51:22;;;;;;;2.27;1.73;;;6.40;37.60;;;;;;5032201;28;20639;-70
2023/12/14 03:53:48;;;;;;;2.10;1.40;;;6.50;36.90;;;;;;5032126;28;20256;-70
2023/12/14 03:56:13;;;;;;;2.40;0.90;;;6.40;36.80;;;;;;5055597;22;21021;-68
2023/12/14 03:58:39;;;;;;;1.80;1.00;;;6.50;37.20;;;;;;5032546;28;20184;-67
2023/12/14 04:01:08;;;;;;;2.10;1.03;;;6.50;37.10;;;;;;5032710;28;20168;-67
2023/12/14 04:03:36;;;;;;;3.40;1.47;;;6.50;36.00;;;;;;5014683;28;20183;-67
2023/12/14 04:06:02;;;;;;;2.57;1.23;;;6.50;37.10;;;;;;5032432;28;20767;-68
2023/12/14 04:08:28;;;;;;;2.17;1.17;;;6.50;36.40;;;;;;5032182;28;20499;-68
2023/12/14 04:10:53;;;;;;;1.80;1.00;;;6.50;34.80;;;;;;5032367;28;20770;-68
2023/12/14 04:13:19;;;;;;;3.37;1.30;;;6.50;35.30;;;;;;5032620;28;20184;-68
2023/12/14 04:15:44;;;;;;;1.90;1.10;;;6.50;34.80;;;;;;5032389;28;20172;-68
2023/12/14 04:18:10;;;;;;;2.30;1.03;;;6.50;35.70;;;;;;5032141;28;20197;-68
2023/12/14 04:20:36;;;;;;;2.53;1.10;;;6.60;34.30;;;;;;5032333;28;20177;-68
2023/12/14 04:23:01;;;;;;;1.73;1.03;;;6.50;33.60;;;;;;5014665;28;20176;-68
2023/12/14 04:25:27;;;;;;;1.90;1.00;;;6.60;35.40;;;;;;5032264;28;20175;-68
2023/12/14 04:27:52;;;;;;;2.27;1.00;;;6.60;32.70;;;;;;5032568;28;20220;-68
2023/12/14 04:30:18;;;;;;;2.40;1.30;;;6.60;32.00;;;;;;5032874;28;20179;-67
2023/12/14 04:32:44;;;;;;;2.00;0.90;;;6.60;33.60;;;;;;5014536;28;20246;-67
2023/12/14 04:35:10;;;;;;;3.47;1.57;;;6.60;33.80;;;;;;5032310;28;20173;-68
2023/12/14 04:37:36;;;;;;;2.60;1.20;;;6.70;33.50;;;;;;5032416;28;20999;-68
2023/12/14 04:40:02;;;;;;;2.37;1.60;;;6.70;34.40;;;;;;5014272;28;20171;-68
2023/12/14 04:42:28;;;;;;;4.43;1.67;;;6.70;34.00;;;;;;5032154;28;20441;-67
2023/12/14 04:44:54;;;;;;;2.77;1.53;;;6.70;33.20;;;;;;5031854;28;20461;-67
2023/12/14 04:47:19;;;;;;;2.60;1.43;;;6.70;32.10;;;;;;5031500;28;20404;-67
2023/12/14 04:49:45;;;;;;;2.53;1.27;;;6.70;33.10;;;;;;5032190;28;20184;-68
2023/12/14 04:52:10;;;;;;;2.17;1.57;;;6.70;33.60;;;;;;5014451;28;20322;-68
2023/12/14 04:54:37;;;;;;;3.20;1.50;;;6.70;32.90;;;;;;5016607;28;20651;-68
2023/12/14 04:57:04;;;;;;;2.20;1.50;;;6.70;32.60;;;;;;5014672;28;20214;-68
2023/12/14 04:59:29;;;;;;;2.00;1.03;;;6.60;34.30;;;;;;5033275;28;20444;-68
2023/12/14 05:01:55;;;;;;;3.97;1.60;;;6.60;34.90;;;;;;5032875;28;20416;-69
2023/12/14 05:04:20;;;;;;;2.47;1.50;;;6.60;35.40;;;;;;5031874;28;20251;-68
2023/12/14 05:06:46;;;;;;;2.30;1.43;;;6.60;34.90;;;;;;5032490;28;20209;-67
2023/12/14 05:09:12;;;;;;;2.73;1.30;;;6.70;35.00;;;;;;5032269;28;20531;-67
2023/12/14 05:11:40;;;;;;;3.27;2.97;;;6.70;34.40;;;;;;5032682;28;20223;-67
2023/12/14 05:14:06;;;;;;;2.50;1.30;;;6.70;34.40;;;;;;5032288;28;20174;-68
2023/12/14 05:16:32;;;;;;;2.93;1.67;;;6.70;34.40;;;;;;5032022;28;20470;-67
2023/12/14 05:18:57;;;;;;;3.20;1.40;;;6.60;34.30;;;;;;5031861;28;20182;-67
2023/12/14 05:21:23;;;;;;;2.30;1.27;;;6.60;34.30;;;;;;5014515;28;20188;-67
2023/12/14 05:23:49;;;;;;;3.97;1.90;;;6.60;34.30;;;;;;5031726;28;20176;-67
2023/12/14 05:26:14;;;;;;;2.73;1.37;;;6.50;36.60;;;;;;5014146;28;20656;-67
2023/12/14 05:28:40;;;;;;;2.00;1.00;;;6.60;33.90;;;;;;5013807;28;20173;-67
2023/12/14 05:31:06;;;;;;;2.30;1.20;;;6.70;35.10;;;;;;5031586;28;20169;-68
2023/12/14 05:33:33;;;;;;;2.47;1.30;;;6.70;34.40;;;;;;5031448;28;20178;-68
2023/12/14 05:35:59;;;;;;;2.47;1.50;;;6.70;33.20;;;;;;5031468;28;20176;-67
2023/12/14 05:38:25;;;;;;;1.80;1.10;;;6.70;34.40;;;;;;5031308;28;20424;-68
2023/12/14 05:40:50;;;;;;;3.50;1.90;;;6.70;34.40;;;;;;5031739;28;20518;-68
2023/12/14 05:43:16;;;;;;;2.37;1.57;;;6.70;34.50;;;;;;5031662;28;20172;-68
2023/12/14 05:45:41;;;;;;;2.30;1.67;;;6.60;34.30;;;;;;5031471;28;20169;-68
2023/12/14 05:48:07;;;;;;;3.60;1.53;;;6.60;35.00;;;;;;5031067;28;20692;-68
2023/12/14 05:50:33;;;;;;;3.03;1.60;;;6.60;35.80;;;;;;5031437;28;20256;-68
2023/12/14 05:52:58;;;;;;;3.00;1.80;;;6.50;36.80;;;;;;5032103;28;20414;-69
2023/12/14 05:55:24;;;;;;;2.63;1.67;;;6.50;37.20;;;;;;5031389;28;20177;-68
2023/12/14 05:57:51;;;;;;;2.13;1.57;;;6.50;38.80;;;;;;5031060;28;20270;-68
2023/12/14 06:00:18;;;;;;;3.30;2.40;;;6.60;38.60;;;;;;5016062;28;20450;-68
2023/12/14 06:02:43;;;;;;;5.70;2.47;;;6.60;38.20;;;;;;5034854;28;20272;-69
2023/12/14 06:05:09;;;;;;;3.23;2.30;;;6.60;37.50;;;;;;5034918;28;20491;-68
2023/12/14 06:07:35;;;;;;;2.70;2.13;;;6.50;37.80;;;;;;5034481;28;20239;-68
2023/12/14 06:10:01;;;;;;;3.53;2.83;;;6.50;38.70;;;;;;5016912;28;20184;-68
2023/12/14 06:12:27;;;;;;;4.80;2.60;;;6.60;39.40;;;;;;5034617;28;20428;-68
2023/12/14 06:14:52;;;;;;;3.33;2.60;;;6.60;38.30;;;;;;5034746;28;20185;-68
2023/12/14 06:17:18;;;;;;;2.63;2.10;;;6.50;39.40;;;;;;5034564;28;20444;-68
2023/12/14 06:19:43;;;;;;;4.50;2.80;;;6.60;39.50;;;;;;5034756;28;20213;-68
2023/12/14 06:22:09;;;;;;;4.40;2.63;;;6.60;37.20;;;;;;5035084;28;20579;-69
2023/12/14 06:24:35;;;;;;;5.70;2.97;;;6.50;37.50;;;;;;5016973;28;20216;-69
2023/12/14 06:27:00;;;;;;;4.23;2.80;;;6.50;39.30;;;;;;5034562;28;20206;-68
2023/12/14 06:29:26;;;;;;;3.77;1.90;;;6.50;39.40;;;;;;5034502;28;20177;-68
2023/12/14 06:31:52;;;;;;;5.73;3.60;;;6.60;39.90;;;;;;5034541;28;20208;-68
2023/12/14 06:34:18;;;;;;;3.87;3.07;;;6.60;39.40;;;;;;5034646;28;20180;-68
2023/12/14 06:36:45;;;;;;;7.10;3.47;;;6.50;39.30;;;;;;5034664;28;20426;-68
2023/12/14 06:39:11;;;;;;;3.63;3.07;;;6.40;39.50;;;;;;5016668;28;20176;-67
2023/12/14 06:41:37;;;;;;;3.27;2.97;;;6.40;40.70;;;;;;5034551;28;20407;-67
2023/12/14 06:44:02;;;;;;;4.73;3.50;;;6.50;42.00;;;;;;5016381;28;20455;-67
2023/12/14 06:46:28;;;;;;;5.27;3.97;;;6.50;40.60;;;;;;5016543;28;20475;-67
2023/12/14 06:48:55;;;;;;;6.80;4.43;;;6.60;42.10;;;;;;5033913;28;20419;-67
2023/12/14 06:51:24;;;;;;;7.07;6.07;;;6.60;40.20;;;;;;5016534;28;20450;-67
2023/12/14 06:53:49;;;;;;;6.53;4.40;;;6.60;40.20;;;;;;5016300;28;20423;-67
2023/12/14 06:56:15;;;;;;;4.23;3.43;;;6.60;39.40;;;;;;5034386;28;20934;-67
2023/12/14 06:58:42;;;;;;;7.33;4.47;;;6.70;39.50;;;;;;5034711;28;20169;-70
2023/12/14 07:01:15;;;;;;;4.80;4.10;;;6.70;39.60;;;;;;5034519;28;20173;-68
2023/12/14 07:03:44;;;;;;;6.70;3.93;;;6.70;39.50;;;;;;5034435;28;20418;-68
2023/12/14 07:06:15;;;;;;;4.00;3.53;;;6.70;38.40;;;;;;5034009;28;20410;-68
2023/12/14 07:08:42;;;;;;;5.33;4.10;;;6.70;39.50;;;;;;5034781;28;20469;-68
2023/12/14 07:11:08;;;;;;;5.10;3.50;;;6.80;38.70;;;;;;5016926;28;20424;-69
2023/12/14 07:13:36;;;;;;;4.93;2.90;;;6.80;38.70;;;;;;5034848;28;20411;-68
2023/12/14 07:16:12;;;;;;;3.80;3.40;;;6.80;39.10;;;;;;5033820;28;20415;-69
2023/12/14 07:18:40;;;;;;;4.00;3.50;;;6.80;38.50;;;;;;5033769;28;20420;-67
2023/12/14 07:21:06;;;;;;;7.73;3.50;;;6.80;38.20;;;;;;5034268;28;20469;-68
2023/12/14 07:23:32;;;;;;;4.57;3.80;;;6.80;38.80;;;;;;5035290;28;20415;-68
2023/12/14 07:25:58;;;;;;;5.77;3.37;;;6.80;39.60;;;;;;5035218;28;20917;-67
2023/12/14 07:28:23;;;;;;;4.27;3.50;;;6.80;37.90;;;;;;5035344;28;20470;-67
2023/12/14 07:30:49;;;;;;;4.33;3.07;;;6.60;37.60;;;;;;5034786;28;20608;-67
2023/12/14 07:33:15;;;;;;;4.03;3.20;;;6.70;39.50;;;;;;5034451;28;20186;-68
2023/12/14 07:35:44;;;;;;;3.63;3.20;;;6.70;39.40;;;;;;5034102;28;20185;-68
2023/12/14 07:38:10;;;;;;;5.23;3.87;;;6.70;39.50;;;;;;5016233;28;20482;-68
2023/12/14 07:40:36;;;;;;;5.37;3.40;;;6.80;37.20;;;;;;5034147;28;20428;-67
2023/12/14 07:43:01;;;;;;;6.27;3.30;;;6.70;37.10;;;;;;5016033;28;20518;-69
2023/12/14 07:45:27;;;;;;;4.13;3.33;;;6.70;38.90;;;;;;5033694;28;20267;-68
2023/12/14 07:47:53;;;;;;;4.07;3.43;;;6.70;38.80;;;;;;5032994;28;20256;-69
2023/12/14 07:50:19;;;;;;;6.47;3.73;;;6.80;37.90;;;;;;5033094;28;20409;-69
2023/12/14 07:52:45;;;;;;;4.67;3.00;;;6.80;37.00;;;;;;5033305;28;20498;-68
2023/12/14 07:55:10;;;;;;;4.47;3.10;;;6.80;37.20;;;;;;5033085;28;20179;-68
2023/12/14 07:57:36;;;;;;;5.17;3.20;;;6.80;37.20;;;;;;5033012;28;20216;-68
2023/12/14 08:00:03;;;;;;;4.10;3.10;;;6.80;36.90;;;;;;5033083;28;20235;-69
2023/12/14 08:02:29;;;;;;;3.43;2.10;;;6.80;36.90;;;;;;5033136;28;20175;-69
2023/12/14 08:04:54;;;;;;;4.10;2.90;;;6.80;36.60;;;;;;5033382;28;20443;-68
2023/12/14 08:07:20;;;;;;;25.80;16.97;;;6.80;35.70;;;;;;5032951;28;20207;-68
2023/12/14 08:09:46;;;;;;;30.00;20.20;;;6.80;35.40;;;;;;5032813;28;20168;-68
2023/12/14 08:12:11;;;;;;;12.00;8.90;;;6.80;38.00;;;;;;5032930;28;20226;-68
2023/12/14 08:14:40;;;;;;;7.23;4.90;;;6.90;38.80;;;;;;5015340;28;20183;-68
2023/12/14 08:17:06;;;;;;;6.80;5.33;;;6.90;37.40;;;;;;5032607;28;20212;-68
2023/12/14 08:19:32;;;;;;;4.80;3.10;;;7.00;36.70;;;;;;5032803;28;20503;-67
2023/12/14 08:21:57;;;;;;;4.33;3.60;;;7.00;35.50;;;;;;5014697;28;20185;-68
2023/12/14 08:24:23;;;;;;;5.50;3.67;;;7.00;35.90;;;;;;5032360;28;20178;-68
2023/12/14 08:26:48;;;;;;;5.50;3.57;;;7.00;34.60;;;;;;5038717;28;20276;-68
2023/12/14 08:29:14;;;;;;;5.17;3.20;;;7.00;35.20;;;;;;5032326;28;20251;-69
2023/12/14 08:31:40;;;;;;;5.17;3.67;;;7.10;35.40;;;;;;5032507;28;20254;-70
2023/12/14 08:34:05;;;;;;;4.63;4.13;;;7.20;34.80;;;;;;5032499;28;20408;-68
2023/12/14 08:36:37;;;;;;;4.03;3.03;;;7.30;35.90;;;;;;5032394;28;20219;-68
2023/12/14 08:39:03;;;;;;;4.97;3.30;;;7.40;35.00;;;;;;5032475;28;20182;-69
2023/12/14 08:41:28;;;;;;;4.67;3.37;;;7.60;34.00;;;;;;5032509;28;20473;-68
2023/12/14 08:43:55;;;;;;;4.47;3.20;;;7.70;33.00;;;;;;5014296;28;20418;-68
2023/12/14 08:46:21;;;;;;;4.13;3.40;;;7.70;29.20;;;;;;5032048;28;20285;-68
2023/12/14 08:48:47;;;;;;;5.80;3.87;;;7.80;27.90;;;;;;5031827;28;20878;-68
2023/12/14 08:51:13;;;;;;;4.17;2.87;;;7.90;27.90;;;;;;5031824;28;20669;-68
2023/12/14 08:53:38;;;;;;;3.77;2.67;;;7.80;26.10;;;;;;5031909;28;20726;-68
2023/12/14 08:56:04;;;;;;;3.67;2.40;;;7.60;28.60;;;;;;5031650;28;20417;-68
2023/12/14 08:58:30;;;;;;;4.70;1.97;;;7.60;28.80;;;;;;5013970;28;20325;-67
2023/12/14 09:00:56;;;;;;;4.20;2.33;;;7.70;28.90;;;;;;5032257;28;20451;-68
2023/12/14 09:03:21;;;;;;;3.10;2.30;;;7.80;28.70;;;;;;5014332;28;20208;-68
2023/12/14 09:05:47;;;;;;;4.80;3.47;;;8.00;28.60;;;;;;5032095;28;20500;-68
2023/12/14 09:08:13;;;;;;;3.03;2.17;;;8.10;26.60;;;;;;5031684;28;20241;-69
2023/12/14 09:10:39;;;;;;;3.60;2.63;;;8.20;26.30;;;;;;5014710;28;20377;-68
2023/12/14 09:13:05;;;;;;;3.00;2.20;;;8.40;24.70;;;;;;5032006;28;20182;-68
2023/12/14 09:15:33;;;;;;;4.20;2.33;;;8.40;23.50;;;;;;5032021;28;20760;-67
2023/12/14 09:17:59;;;;;;;2.50;2.00;;;8.40;22.30;;;;;;5031782;28;20468;-68
2023/12/14 09:20:25;;;;;;;3.00;2.03;;;8.40;22.60;;;;;;5014557;28;20458;-68
2023/12/14 09:22:50;;;;;;;3.60;1.43;;;8.50;23.60;;;;;;5032101;28;20186;-68
2023/12/14 09:25:16;;;;;;;2.97;1.70;;;8.30;22.20;;;;;;5032471;28;20180;-68
2023/12/14 09:27:42;;;;;;;12.67;9.20;;;8.20;23.80;;;;;;5032369;28;20234;-68
2023/12/14 09:30:08;;;;;;;3.00;2.03;;;8.10;23.00;;;;;;5032066;28;20412;-68
2023/12/14 09:32:34;;;;;;;5.60;2.20;;;8.10;25.10;;;;;;5014564;28;20180;-68
2023/12/14 09:34:59;;;;;;;4.33;1.30;;;8.20;24.50;;;;;;5034013;28;20954;-68
2023/12/14 09:37:25;;;;;;;2.43;1.27;;;8.30;22.50;;;;;;5035319;28;20216;-68
2023/12/14 09:39:51;;;;;;;2.93;1.23;;;8.30;23.20;;;;;;5035646;28;20187;-68
2023/12/14 09:42:20;;;;;;;4.00;1.97;;;8.50;23.50;;;;;;5035501;28;20182;-67
2023/12/14 09:44:50;;;;;;;3.83;1.80;;;8.70;22.50;;;;;;5019401;28;20197;-68
2023/12/14 09:47:15;;;;;;;2.90;1.53;;;8.80;20.20;;;;;;5038857;28;20818;-68
2023/12/14 09:49:45;;;;;;;3.33;1.97;;;8.80;19.50;;;;;;5038373;28;20408;-69
2023/12/14 09:52:11;;;;;;;3.00;1.70;;;8.90;18.90;;;;;;5035747;28;20198;-68
2023/12/14 09:54:37;;;;;;;2.63;1.20;;;9.00;17.60;;;;;;5036502;28;20428;-68
2023/12/14 09:57:03;;;;;;;1.80;0.87;;;9.00;15.20;;;;;;5041078;23;20551;-69
2023/12/14 09:59:29;;;;;;;2.20;1.13;;;9.10;16.80;;;;;;5034498;28;20417;-69
2023/12/14 10:02:09;;;;;;;2.23;1.17;;;9.20;14.50;;;;;;5033120;28;20778;-69
2023/12/14 10:04:35;;;;;;;1.93;1.00;;;9.20;14.30;;;;;;5034982;28;20175;-69
2023/12/14 10:07:06;;;;;;;3.10;1.07;;;9.20;15.40;;;;;;5034373;28;20556;-70
2023/12/14 10:09:32;;;;;;;2.30;1.20;;;9.10;14.20;;;;;;5034586;28;20417;-69
2023/12/14 10:12:06;;;;;;;2.23;0.90;;;9.20;14.90;;;;;;5034487;28;20410;-70
2023/12/14 10:14:33;;;;;;;2.50;0.80;;;9.40;14.40;;;;;;5034289;28;20557;-70
2023/12/14 10:16:58;;;;;;;2.20;1.33;;;9.60;13.40;;;;;;5034281;28;20430;-70
2023/12/14 10:19:24;;;;;;;2.67;1.20;;;9.60;12.80;;;;;;5034006;28;20765;-69
2023/12/14 10:21:50;;;;;;;3.63;2.40;;;9.50;11.50;;;;;;5034465;28;20548;-70
2023/12/14 10:24:17;;;;;;;2.90;1.40;;;9.00;13.80;;;;;;5034441;28;20725;-70
2023/12/14 10:26:45;;;;;;;2.43;1.83;;;8.70;17.30;;;;;;5034131;28;20454;-69
2023/12/14 10:29:10;;;;;;;2.53;1.53;;;8.60;18.30;;;;;;5033975;28;20509;-70
2023/12/14 10:31:39;;;;;;;3.00;2.00;;;8.30;20.20;;;;;;5034570;28;20437;-69
2023/12/14 10:34:05;;;;;;;3.73;2.27;;;8.30;21.80;;;;;;5034133;28;20183;-70
2023/12/14 10:36:32;;;;;;;2.57;1.73;;;8.10;22.10;;;;;;5034340;28;20419;-70
2023/12/14 10:38:59;;;;;;;4.13;2.07;;;8.10;22.70;;;;;;5033787;28;20425;-70
2023/12/14 10:41:25;;;;;;;3.23;1.60;;;8.10;24.20;;;;;;5033985;28;20414;-69
2023/12/14 10:43:53;;;;;;;3.50;2.30;;;8.30;24.20;;;;;;5034122;28;20412;-69
2023/12/14 10:46:20;;;;;;;2.63;1.77;;;8.30;22.20;;;;;;5033282;28;20205;-69
2023/12/14 10:48:48;;;;;;;3.53;2.03;;;8.50;22.50;;;;;;5033346;28;20414;-69
2023/12/14 10:51:14;;;;;;;4.00;1.93;;;8.60;21.50;;;;;;5015898;28;20421;-69
2023/12/14 10:53:44;;;;;;;4.77;2.10;;;8.90;21.10;;;;;;5033600;28;20410;-69
2023/12/14 10:56:11;;;;;;;2.53;1.83;;;8.70;18.90;;;;;;5015901;28;20425;-69
2023/12/14 10:58:54;;;;;;;2.93;1.60;;;8.60;20.50;;;;;;5033362;28;20459;-69
2023/12/14 11:01:21;;;;;;;3.00;1.77;;;8.50;20.70;;;;;;5033464;28;20425;-69
2023/12/14 11:03:48;;;;;;;2.80;1.73;;;8.60;21.90;;;;;;5015647;28;20433;-68
2023/12/14 11:06:30;;;;;;;3.63;2.40;;;8.80;21.30;;;;;;5033612;28;20508;-69
2023/12/14 11:09:05;;;;;;;3.23;2.23;;;9.00;20.10;;;;;;5033099;28;20414;-69
2023/12/14 11:11:53;;;;;;;5.87;2.37;;;9.00;21.10;;;;;;5033257;28;20781;-69
2023/12/14 11:14:20;;;;;;;3.10;2.10;;;8.90;20.70;;;;;;5033216;28;20853;-69
2023/12/14 11:16:48;;;;;;;2.90;2.20;;;8.80;21.00;;;;;;5033443;28;20798;-69
2023/12/14 11:19:25;;;;;;;3.23;2.00;;;9.30;19.70;;;;;;5033414;28;20940;-70
2023/12/14 11:22:12;;;;;;;4.00;2.23;;;8.60;20.70;;;;;;5032959;28;20412;-70
2023/12/14 11:24:42;;;;;;;3.70;2.37;;;8.70;20.70;;;;;;5032984;28;20432;-69
2023/12/14 11:27:08;;;;;;;2.43;1.57;;;8.70;21.20;;;;;;5032660;28;20471;-70
2023/12/14 11:29:35;;;;;;;4.10;2.30;;;8.90;21.90;;;;;;5032884;28;20860;-69
2023/12/14 11:32:01;;;;;;;5.30;3.53;;;9.10;19.90;;;;;;5032906;28;20527;-70
2023/12/14 11:34:27;;;;;;;3.00;1.77;;;9.30;18.60;;;;;;5032708;28;20420;-70
2023/12/14 11:36:54;;;;;;;3.83;1.87;;;9.40;16.20;;;;;;5032524;28;20697;-70
2023/12/14 11:39:21;;;;;;;3.20;1.30;;;9.50;16.00;;;;;;5032489;28;20467;-71
2023/12/14 11:42:03;;;;;;;4.10;1.90;;;9.60;14.50;;;;;;5015228;28;20445;-70
2023/12/14 11:44:30;;;;;;;5.33;2.40;;;9.50;13.50;;;;;;5033014;28;20442;-70
2023/12/14 11:46:56;;;;;;;2.50;1.50;;;9.60;13.70;;;;;;5032894;28;20514;-69
2023/12/14 11:49:25;;;;;;;3.90;2.77;;;9.50;13.50;;;;;;5032600;28;20445;-69
2023/12/14 11:51:53;;;;;;;5.67;2.40;;;9.30;12.30;;;;;;5032912;28;20544;-70
2023/12/14 11:54:19;;;;;;;2.10;1.33;;;9.40;12.90;;;;;;5032739;28;20414;-70
2023/12/14 11:56:49;;;;;;;2.47;1.30;;;9.60;12.30;;;;;;5031812;28;20442;-70
2023/12/14 11:59:17;;;;;;;3.93;1.47;;;9.70;11.50;;;;;;5032575;28;20761;-70
2023/12/14 12:01:54;;;;;;;4.90;1.97;;;9.80;11.00;;;;;;5014967;28;20441;-70
2023/12/14 12:04:20;;;;;;;4.50;1.50;;;9.80;9.20;;;;;;5014926;28;20453;-69
2023/12/14 12:06:45;;;;;;;3.17;1.27;;;9.70;7.90;;;;;;5032277;28;20488;-70
2023/12/14 12:09:12;;;;;;;2.63;1.60;;;9.50;9.40;;;;;;5032189;28;20603;-71
2023/12/14 12:11:37;;;;;;;2.97;1.43;;;9.30;10.80;;;;;;5014679;28;20207;-70
2023/12/14 12:14:04;;;;;;;2.40;1.17;;;9.70;10.20;;;;;;5032303;28;20457;-70
2023/12/14 12:16:31;;;;;;;5.10;1.87;;;9.90;8.20;;;;;;5032322;28;20598;-70
2023/12/14 12:18:56;;;;;;;2.30;1.20;;;10.00;8.40;;;;;;5032781;28;20532;-70
2023/12/14 12:21:22;;;;;;;4.80;1.83;;;10.00;8.80;;;;;;5032433;28;20496;-70
2023/12/14 12:23:47;;;;;;;3.53;1.60;;;10.00;8.30;;;;;;5032480;28;20182;-70
2023/12/14 12:26:13;;;;;;;3.17;1.73;;;10.20;9.20;;;;;;5032240;28;20175;-71
2023/12/14 12:28:38;;;;;;;12.93;1.70;;;10.30;8.60;;;;;;5031953;28;20217;-70
2023/12/14 12:31:04;;;;;;;1.80;1.03;;;10.00;6.80;;;;;;5032399;28;20171;-70
2023/12/14 12:33:30;;;;;;;3.70;1.87;;;9.90;8.90;;;;;;5032111;28;20182;-70
2023/12/14 12:35:55;;;;;;;2.90;1.70;;;9.70;9.80;;;;;;5013946;28;20186;-70
2023/12/14 12:38:21;;;;;;;3.20;2.00;;;9.80;9.80;;;;;;5031362;28;20203;-70
2023/12/14 12:40:46;;;;;;;3.87;1.93;;;9.70;11.00;;;;;;5031647;28;20513;-70
2023/12/14 12:43:13;;;;;;;3.47;1.60;;;9.50;11.70;;;;;;5031613;28;20406;-70
2023/12/14 12:45:39;;;;;;;2.73;1.50;;;9.30;14.40;;;;;;5032478;28;20567;-71
2023/12/14 12:48:06;;;;;;;5.73;1.57;;;9.10;15.60;;;;;;5013466;28;20469;-69
2023/12/14 12:50:32;;;;;;;4.00;2.23;;;8.90;18.00;;;;;;5031524;28;20171;-70
2023/12/14 12:52:58;;;;;;;3.70;2.60;;;8.70;19.70;;;;;;5031541;28;20456;-69